createdAt,value
2023-02-12T00:09:23.626Z,102924.00
2023-02-12T00:19:24.059Z,102926.00
2023-02-12T00:29:24.672Z,102926.00
2023-02-12T00:39:24.772Z,102924.00
2023-02-12T00:49:24.644Z,102924.00
2023-02-12T00:59:24.689Z,102924.00
2023-02-12T01:09:24.702Z,102919.99
2023-02-12T01:19:24.738Z,102918.01
2023-02-12T01:29:24.850Z,102907.99
2023-02-12T01:39:24.700Z,102910.00
2023-02-12T01:49:24.835Z,102907.99
2023-02-12T01:59:24.841Z,102907.99
2023-02-12T02:09:26.651Z,102904.00
2023-02-12T02:19:27.485Z,102906.01
2023-02-12T02:29:27.806Z,102904.00
2023-02-12T02:39:27.760Z,102902.00
2023-02-12T02:49:27.801Z,102896.00
2023-02-12T02:59:28.749Z,102902.00
2023-02-12T03:09:28.827Z,102898.00
2023-02-12T03:19:28.849Z,102896.00
2023-02-12T03:29:28.862Z,102896.00
2023-02-12T03:39:28.932Z,102896.00
2023-02-12T03:49:28.889Z,102890.00
2023-02-12T03:59:29.040Z,102890.00
2023-02-12T04:09:28.956Z,102886.00
2023-02-12T04:19:28.937Z,102890.00
2023-02-12T04:29:29.033Z,102902.00
2023-02-12T04:39:28.929Z,102912.00
2023-02-12T04:49:28.996Z,102919.99
2023-02-12T04:59:28.979Z,102926.00
2023-02-12T05:09:29.040Z,102928.00
2023-02-12T05:19:29.028Z,102931.01
2023-02-12T05:29:29.048Z,102931.01
2023-02-12T05:39:29.075Z,102939.00
2023-02-12T05:49:29.042Z,102943.01
2023-02-12T05:59:29.160Z,102949.00
2023-02-12T06:09:29.077Z,102951.00
2023-02-12T06:19:29.162Z,102949.00
2023-02-12T06:29:29.493Z,102949.00
2023-02-12T06:39:30.129Z,102953.00
2023-02-12T06:49:30.114Z,102955.01
2023-02-12T06:59:30.119Z,102963.00
2023-02-12T07:09:30.100Z,102968.99
2023-02-12T07:19:30.118Z,102977.00
2023-02-12T07:29:30.246Z,102981.99
2023-02-12T07:39:30.134Z,102986.00
2023-02-12T07:49:30.241Z,102988.00
2023-02-12T07:59:30.321Z,102992.01
2023-02-12T08:09:30.847Z,103002.00
2023-02-12T08:19:31.196Z,103010.00
2023-02-12T08:29:31.349Z,103019.99
2023-02-12T08:39:31.306Z,103027.00
2023-02-12T08:49:31.343Z,103027.00
2023-02-12T08:59:31.308Z,103032.99
2023-02-12T09:09:31.271Z,103032.99
2023-02-12T09:19:31.306Z,103039.00
2023-02-12T09:29:31.390Z,103039.00
2023-02-12T09:39:31.800Z,103044.99
2023-02-12T09:49:32.378Z,103039.00
2023-02-12T09:59:32.412Z,103044.99
2023-02-12T10:09:32.324Z,103047.00
2023-02-12T10:19:32.365Z,103053.00
2023-02-12T10:29:32.429Z,103053.00
2023-02-12T10:39:32.444Z,103044.99
2023-02-12T10:49:32.415Z,103041.00
2023-02-12T10:59:34.892Z,103035.00
2023-02-12T11:09:34.746Z,103032.99
2023-02-12T11:19:35.566Z,103027.00
2023-02-12T11:29:35.475Z,103019.99
2023-02-12T11:39:35.428Z,103010.00
2023-02-12T11:49:35.450Z,103002.00
2023-02-12T11:59:35.474Z,102993.99
2023-02-12T12:09:35.541Z,102988.00
2023-02-12T12:19:52.270Z,102980.01
2023-02-12T12:29:52.494Z,102971.00
2023-02-12T12:39:52.603Z,102955.01
2023-02-12T12:49:52.567Z,102944.99
2023-02-12T12:59:52.549Z,102931.01
2023-02-12T13:09:52.691Z,102914.00
2023-02-12T13:19:52.637Z,102904.00
2023-02-12T13:29:52.806Z,102898.00
2023-02-12T13:39:52.730Z,102890.00
2023-02-12T13:49:53.138Z,102882.99
2023-02-12T13:59:53.897Z,102877.00
2023-02-12T14:09:53.736Z,102871.00
2023-02-12T14:19:53.785Z,102868.99
2023-02-12T14:29:53.741Z,102868.99
2023-02-12T14:39:53.769Z,102868.99
2023-02-12T14:49:55.347Z,102873.00
2023-02-12T14:59:55.855Z,102868.99
2023-02-12T15:09:58.150Z,102867.01
2023-02-12T15:19:59.489Z,102852.00
2023-02-12T15:29:59.845Z,102843.99
2023-02-12T15:39:59.857Z,102838.00
2023-02-12T15:49:59.828Z,102834.00
2023-02-12T15:59:59.793Z,102831.99
2023-02-12T16:09:59.868Z,102823.00
2023-02-12T16:19:59.829Z,102821.00
2023-02-12T16:29:59.916Z,102823.00
2023-02-12T16:40:00.537Z,102825.00
2023-02-12T16:50:01.208Z,102827.00
2023-02-12T17:00:00.986Z,102831.99
2023-02-12T17:10:00.958Z,102836.00
2023-02-12T17:20:00.947Z,102840.00
2023-02-12T17:30:00.932Z,102846.00
2023-02-12T17:40:01.154Z,102861.00
2023-02-12T17:50:02.135Z,102852.00
2023-02-12T18:00:03.939Z,102863.00
2023-02-12T18:10:04.847Z,102867.01
2023-02-12T18:20:04.980Z,102868.99
2023-02-12T18:30:04.966Z,102865.00
2023-02-12T18:40:05.166Z,102865.00
2023-02-12T18:50:05.107Z,102852.00
2023-02-12T19:00:05.229Z,102863.00
2023-02-12T19:10:05.249Z,102865.00
2023-02-12T19:20:05.335Z,102865.00
2023-02-12T19:30:05.218Z,102861.00
2023-02-12T19:40:05.174Z,102863.00
2023-02-12T19:50:05.173Z,102850.00
2023-02-12T20:00:06.214Z,102852.00
2023-02-12T20:10:06.210Z,102850.00
2023-02-12T20:20:06.141Z,102846.00
2023-02-12T20:30:06.155Z,102842.01
2023-02-12T20:40:06.209Z,102842.01
2023-02-12T20:50:06.424Z,102843.99
2023-02-12T21:00:07.161Z,102843.99
2023-02-12T21:10:07.309Z,102843.99
2023-02-12T21:20:07.315Z,102843.99
2023-02-12T21:30:07.281Z,102840.00
2023-02-12T21:40:07.443Z,102843.99
2023-02-12T21:50:07.264Z,102848.00
2023-02-12T22:00:09.118Z,102848.00
2023-02-12T22:10:09.375Z,102850.00
2023-02-12T22:20:09.288Z,102850.00
2023-02-12T22:30:09.261Z,102850.00
2023-02-12T22:40:09.503Z,102843.99
2023-02-12T22:50:09.319Z,102843.99
2023-02-12T23:00:09.278Z,102848.00
2023-02-12T23:10:09.409Z,102850.00
2023-02-12T23:20:09.307Z,102863.00
2023-02-12T23:30:09.369Z,102861.00
2023-02-12T23:40:09.373Z,102863.00
2023-02-12T23:50:09.507Z,102861.00
